sensor_id;sensor_type;location;lat;lon;timestamp;P1;durP1;ratioP1;P2;durP2;ratioP2
46651;SDS011;32377;52.182;5.398;2023-07-29T00:01:54;5.38;;;1.70;;
46651;SDS011;32377;52.182;5.398;2023-07-29T00:04:20;2.53;;;1.55;;
46651;SDS011;32377;52.182;5.398;2023-07-29T00:06:45;3.35;;;2.15;;
46651;SDS011;32377;52.182;5.398;2023-07-29T00:09:11;5.53;;;1.60;;
46651;SDS011;32377;52.182;5.398;2023-07-29T00:11:37;2.80;;;1.30;;
46651;SDS011;32377;52.182;5.398;2023-07-29T00:14:03;2.17;;;1.48;;
46651;SDS011;32377;52.182;5.398;2023-07-29T00:16:29;2.10;;;1.45;;
46651;SDS011;32377;52.182;5.398;2023-07-29T00:18:54;5.30;;;1.23;;
46651;SDS011;32377;52.182;5.398;2023-07-29T00:21:20;4.22;;;1.52;;
46651;SDS011;32377;52.182;5.398;2023-07-29T00:23:45;1.92;;;1.30;;
46651;SDS011;32377;52.182;5.398;2023-07-29T00:26:11;4.85;;;1.65;;
46651;SDS011;32377;52.182;5.398;2023-07-29T00:28:37;4.25;;;1.38;;
46651;SDS011;32377;52.182;5.398;2023-07-29T00:31:02;6.28;;;1.75;;
46651;SDS011;32377;52.182;5.398;2023-07-29T00:33:28;2.75;;;1.73;;
46651;SDS011;32377;52.182;5.398;2023-07-29T00:35:53;2.95;;;1.40;;
46651;SDS011;32377;52.182;5.398;2023-07-29T00:38:19;5.00;;;1.58;;
46651;SDS011;32377;52.182;5.398;2023-07-29T00:40:44;7.88;;;1.75;;
46651;SDS011;32377;52.182;5.398;2023-07-29T00:43:10;2.65;;;1.40;;
46651;SDS011;32377;52.182;5.398;2023-07-29T00:45:36;4.45;;;1.48;;
46651;SDS011;32377;52.182;5.398;2023-07-29T00:48:02;1.83;;;1.40;;
46651;SDS011;32377;52.182;5.398;2023-07-29T00:50:28;3.17;;;1.50;;
46651;SDS011;32377;52.182;5.398;2023-07-29T00:52:56;5.30;;;1.70;;
46651;SDS011;32377;52.182;5.398;2023-07-29T00:55:22;8.18;;;1.75;;
46651;SDS011;32377;52.182;5.398;2023-07-29T00:57:48;6.68;;;1.40;;
46651;SDS011;32377;52.182;5.398;2023-07-29T01:00:18;5.35;;;1.83;;
46651;SDS011;32377;52.182;5.398;2023-07-29T01:02:43;7.65;;;2.00;;
46651;SDS011;32377;52.182;5.398;2023-07-29T01:05:11;3.67;;;1.20;;
46651;SDS011;32377;52.182;5.398;2023-07-29T01:07:47;4.00;;;1.38;;
46651;SDS011;32377;52.182;5.398;2023-07-29T01:10:35;3.83;;;1.95;;
46651;SDS011;32377;52.182;5.398;2023-07-29T01:13:25;3.03;;;1.63;;
46651;SDS011;32377;52.182;5.398;2023-07-29T01:16:34;3.63;;;2.08;;
46651;SDS011;32377;52.182;5.398;2023-07-29T01:19:02;5.43;;;1.77;;
46651;SDS011;32377;52.182;5.398;2023-07-29T01:21:32;6.30;;;2.17;;
46651;SDS011;32377;52.182;5.398;2023-07-29T01:23:59;5.38;;;1.88;;
46651;SDS011;32377;52.182;5.398;2023-07-29T01:26:25;4.20;;;2.05;;
46651;SDS011;32377;52.182;5.398;2023-07-29T01:28:52;3.95;;;1.70;;
46651;SDS011;32377;52.182;5.398;2023-07-29T01:31:31;6.55;;;2.20;;
46651;SDS011;32377;52.182;5.398;2023-07-29T01:34:02;7.82;;;1.90;;
46651;SDS011;32377;52.182;5.398;2023-07-29T01:36:38;5.60;;;1.77;;
46651;SDS011;32377;52.182;5.398;2023-07-29T01:39:06;5.63;;;2.17;;
46651;SDS011;32377;52.182;5.398;2023-07-29T01:41:33;8.73;;;2.38;;
46651;SDS011;32377;52.182;5.398;2023-07-29T01:44:00;7.38;;;2.15;;
46651;SDS011;32377;52.182;5.398;2023-07-29T01:46:26;5.85;;;2.25;;
46651;SDS011;32377;52.182;5.398;2023-07-29T01:48:52;5.45;;;2.80;;
46651;SDS011;32377;52.182;5.398;2023-07-29T01:51:18;6.60;;;2.50;;
46651;SDS011;32377;52.182;5.398;2023-07-29T01:53:44;6.15;;;2.88;;
46651;SDS011;32377;52.182;5.398;2023-07-29T01:56:09;9.13;;;3.35;;
46651;SDS011;32377;52.182;5.398;2023-07-29T01:58:35;13.32;;;3.83;;
46651;SDS011;32377;52.182;5.398;2023-07-29T02:01:01;8.25;;;3.55;;
46651;SDS011;32377;52.182;5.398;2023-07-29T02:03:26;9.57;;;4.00;;
46651;SDS011;32377;52.182;5.398;2023-07-29T02:05:52;10.07;;;4.20;;
46651;SDS011;32377;52.182;5.398;2023-07-29T02:08:17;10.45;;;4.25;;
46651;SDS011;32377;52.182;5.398;2023-07-29T02:10:43;9.30;;;4.18;;
46651;SDS011;32377;52.182;5.398;2023-07-29T02:13:10;6.68;;;4.00;;
46651;SDS011;32377;52.182;5.398;2023-07-29T02:15:36;12.45;;;4.28;;
46651;SDS011;32377;52.182;5.398;2023-07-29T02:18:01;9.75;;;4.45;;
46651;SDS011;32377;52.182;5.398;2023-07-29T02:20:28;11.98;;;4.53;;
46651;SDS011;32377;52.182;5.398;2023-07-29T02:22:54;8.77;;;5.03;;
46651;SDS011;32377;52.182;5.398;2023-07-29T02:25:19;9.68;;;4.85;;
46651;SDS011;32377;52.182;5.398;2023-07-29T02:27:45;9.18;;;5.05;;
46651;SDS011;32377;52.182;5.398;2023-07-29T02:30:11;11.65;;;5.47;;
46651;SDS011;32377;52.182;5.398;2023-07-29T02:32:37;15.80;;;6.13;;
46651;SDS011;32377;52.182;5.398;2023-07-29T02:35:03;12.13;;;5.43;;
46651;SDS011;32377;52.182;5.398;2023-07-29T02:37:29;11.77;;;5.55;;
46651;SDS011;32377;52.182;5.398;2023-07-29T02:39:55;9.25;;;5.65;;
46651;SDS011;32377;52.182;5.398;2023-07-29T02:42:21;9.60;;;5.45;;
46651;SDS011;32377;52.182;5.398;2023-07-29T02:44:46;13.25;;;5.93;;
46651;SDS011;32377;52.182;5.398;2023-07-29T02:47:12;12.40;;;5.95;;
46651;SDS011;32377;52.182;5.398;2023-07-29T02:49:37;13.52;;;6.03;;
46651;SDS011;32377;52.182;5.398;2023-07-29T02:52:03;9.85;;;5.50;;
46651;SDS011;32377;52.182;5.398;2023-07-29T02:54:29;11.50;;;5.47;;
46651;SDS011;32377;52.182;5.398;2023-07-29T02:56:54;13.32;;;5.78;;
46651;SDS011;32377;52.182;5.398;2023-07-29T02:59:20;11.15;;;5.22;;
46651;SDS011;32377;52.182;5.398;2023-07-29T03:01:46;10.73;;;5.10;;
46651;SDS011;32377;52.182;5.398;2023-07-29T03:04:11;11.18;;;5.63;;
46651;SDS011;32377;52.182;5.398;2023-07-29T03:06:38;11.70;;;6.03;;
46651;SDS011;32377;52.182;5.398;2023-07-29T03:09:03;10.10;;;5.57;;
46651;SDS011;32377;52.182;5.398;2023-07-29T03:11:29;9.40;;;5.15;;
46651;SDS011;32377;52.182;5.398;2023-07-29T03:13:56;9.98;;;4.70;;
46651;SDS011;32377;52.182;5.398;2023-07-29T03:16:22;10.15;;;5.22;;
46651;SDS011;32377;52.182;5.398;2023-07-29T03:18:48;11.23;;;4.82;;
46651;SDS011;32377;52.182;5.398;2023-07-29T03:21:14;9.02;;;4.65;;
46651;SDS011;32377;52.182;5.398;2023-07-29T03:23:40;12.30;;;5.53;;
46651;SDS011;32377;52.182;5.398;2023-07-29T03:26:06;12.73;;;4.40;;
46651;SDS011;32377;52.182;5.398;2023-07-29T03:28:41;15.25;;;4.85;;
46651;SDS011;32377;52.182;5.398;2023-07-29T03:31:08;8.55;;;4.47;;
46651;SDS011;32377;52.182;5.398;2023-07-29T03:33:34;12.25;;;4.82;;
46651;SDS011;32377;52.182;5.398;2023-07-29T03:35:59;10.77;;;4.25;;
46651;SDS011;32377;52.182;5.398;2023-07-29T03:38:25;8.80;;;4.60;;
46651;SDS011;32377;52.182;5.398;2023-07-29T03:40:51;16.27;;;5.05;;
46651;SDS011;32377;52.182;5.398;2023-07-29T03:43:16;8.70;;;4.32;;
46651;SDS011;32377;52.182;5.398;2023-07-29T03:45:42;9.80;;;4.22;;
46651;SDS011;32377;52.182;5.398;2023-07-29T03:48:08;9.18;;;3.95;;
46651;SDS011;32377;52.182;5.398;2023-07-29T03:50:34;8.80;;;4.30;;
46651;SDS011;32377;52.182;5.398;2023-07-29T03:53:01;7.25;;;4.28;;
46651;SDS011;32377;52.182;5.398;2023-07-29T03:59:04;8.18;;;3.80;;
46651;SDS011;32377;52.182;5.398;2023-07-29T04:01:30;11.18;;;3.92;;
46651;SDS011;32377;52.182;5.398;2023-07-29T04:03:57;6.43;;;3.45;;
46651;SDS011;32377;52.182;5.398;2023-07-29T04:06:24;7.63;;;3.25;;
46651;SDS011;32377;52.182;5.398;2023-07-29T04:08:49;7.18;;;3.60;;
46651;SDS011;32377;52.182;5.398;2023-07-29T04:11:15;6.43;;;3.50;;
46651;SDS011;32377;52.182;5.398;2023-07-29T04:13:41;5.65;;;3.55;;
46651;SDS011;32377;52.182;5.398;2023-07-29T04:16:07;7.90;;;3.13;;
46651;SDS011;32377;52.182;5.398;2023-07-29T04:18:32;9.93;;;3.65;;
46651;SDS011;32377;52.182;5.398;2023-07-29T04:20:58;6.28;;;3.72;;
46651;SDS011;32377;52.182;5.398;2023-07-29T04:23:24;8.57;;;3.20;;
46651;SDS011;32377;52.182;5.398;2023-07-29T04:25:49;10.00;;;3.88;;
46651;SDS011;32377;52.182;5.398;2023-07-29T04:28:15;6.50;;;3.80;;
46651;SDS011;32377;52.182;5.398;2023-07-29T04:30:41;7.07;;;3.85;;
46651;SDS011;32377;52.182;5.398;2023-07-29T04:33:07;7.55;;;3.50;;
46651;SDS011;32377;52.182;5.398;2023-07-29T04:35:32;7.70;;;3.72;;
46651;SDS011;32377;52.182;5.398;2023-07-29T04:37:58;7.40;;;3.72;;
46651;SDS011;32377;52.182;5.398;2023-07-29T04:40:23;9.15;;;3.67;;
46651;SDS011;32377;52.182;5.398;2023-07-29T04:42:49;8.45;;;4.32;;
46651;SDS011;32377;52.182;5.398;2023-07-29T04:45:16;12.57;;;4.10;;
46651;SDS011;32377;52.182;5.398;2023-07-29T04:47:41;8.73;;;4.40;;
46651;SDS011;32377;52.182;5.398;2023-07-29T04:50:07;7.35;;;4.03;;
46651;SDS011;32377;52.182;5.398;2023-07-29T04:52:33;6.22;;;3.28;;
46651;SDS011;32377;52.182;5.398;2023-07-29T04:54:59;4.88;;;3.08;;
46651;SDS011;32377;52.182;5.398;2023-07-29T04:57:24;7.72;;;3.53;;
46651;SDS011;32377;52.182;5.398;2023-07-29T04:59:50;8.07;;;4.22;;
46651;SDS011;32377;52.182;5.398;2023-07-29T05:02:15;8.68;;;3.20;;
46651;SDS011;32377;52.182;5.398;2023-07-29T05:04:41;5.25;;;3.25;;
46651;SDS011;32377;52.182;5.398;2023-07-29T05:07:07;7.85;;;3.20;;
46651;SDS011;32377;52.182;5.398;2023-07-29T05:09:32;6.00;;;3.50;;
46651;SDS011;32377;52.182;5.398;2023-07-29T05:11:58;5.15;;;3.40;;
46651;SDS011;32377;52.182;5.398;2023-07-29T05:14:23;5.13;;;2.90;;
46651;SDS011;32377;52.182;5.398;2023-07-29T05:16:49;5.10;;;2.83;;
46651;SDS011;32377;52.182;5.398;2023-07-29T05:19:15;6.20;;;3.13;;
46651;SDS011;32377;52.182;5.398;2023-07-29T05:21:40;6.38;;;3.45;;
46651;SDS011;32377;52.182;5.398;2023-07-29T05:24:06;6.22;;;3.10;;
46651;SDS011;32377;52.182;5.398;2023-07-29T05:26:35;8.15;;;3.13;;
46651;SDS011;32377;52.182;5.398;2023-07-29T05:29:00;5.07;;;3.28;;
46651;SDS011;32377;52.182;5.398;2023-07-29T05:31:29;6.80;;;3.17;;
46651;SDS011;32377;52.182;5.398;2023-07-29T05:33:54;4.75;;;3.00;;
46651;SDS011;32377;52.182;5.398;2023-07-29T05:36:20;9.38;;;3.45;;
46651;SDS011;32377;52.182;5.398;2023-07-29T05:38:46;5.63;;;2.85;;
46651;SDS011;32377;52.182;5.398;2023-07-29T05:41:11;6.93;;;3.10;;
46651;SDS011;32377;52.182;5.398;2023-07-29T05:43:37;6.18;;;3.20;;
46651;SDS011;32377;52.182;5.398;2023-07-29T05:46:02;10.75;;;3.60;;
46651;SDS011;32377;52.182;5.398;2023-07-29T05:48:28;9.43;;;3.40;;
46651;SDS011;32377;52.182;5.398;2023-07-29T05:50:54;9.95;;;4.28;;
46651;SDS011;32377;52.182;5.398;2023-07-29T05:53:19;6.45;;;3.90;;
46651;SDS011;32377;52.182;5.398;2023-07-29T05:55:45;8.52;;;3.83;;
46651;SDS011;32377;52.182;5.398;2023-07-29T05:58:11;7.40;;;4.03;;
46651;SDS011;32377;52.182;5.398;2023-07-29T06:00:36;11.77;;;3.75;;
46651;SDS011;32377;52.182;5.398;2023-07-29T06:03:02;8.27;;;4.10;;
46651;SDS011;32377;52.182;5.398;2023-07-29T06:05:28;7.10;;;4.45;;
46651;SDS011;32377;52.182;5.398;2023-07-29T06:07:53;6.80;;;3.95;;
46651;SDS011;32377;52.182;5.398;2023-07-29T06:10:19;7.68;;;4.05;;
46651;SDS011;32377;52.182;5.398;2023-07-29T06:12:45;7.07;;;4.03;;
46651;SDS011;32377;52.182;5.398;2023-07-29T06:15:11;5.72;;;3.85;;
46651;SDS011;32377;52.182;5.398;2023-07-29T06:17:37;7.18;;;3.83;;
46651;SDS011;32377;52.182;5.398;2023-07-29T06:20:03;7.47;;;4.40;;
46651;SDS011;32377;52.182;5.398;2023-07-29T06:22:29;9.35;;;4.40;;
46651;SDS011;32377;52.182;5.398;2023-07-29T06:24:55;9.02;;;4.28;;
46651;SDS011;32377;52.182;5.398;2023-07-29T06:27:20;7.05;;;3.97;;
46651;SDS011;32377;52.182;5.398;2023-07-29T06:29:46;6.68;;;3.78;;
46651;SDS011;32377;52.182;5.398;2023-07-29T06:32:11;7.00;;;4.22;;
46651;SDS011;32377;52.182;5.398;2023-07-29T06:34:37;6.95;;;3.67;;
46651;SDS011;32377;52.182;5.398;2023-07-29T06:37:03;9.85;;;4.43;;
46651;SDS011;32377;52.182;5.398;2023-07-29T06:39:28;5.40;;;3.60;;
46651;SDS011;32377;52.182;5.398;2023-07-29T06:41:54;11.70;;;3.88;;
46651;SDS011;32377;52.182;5.398;2023-07-29T06:44:20;8.32;;;3.90;;
46651;SDS011;32377;52.182;5.398;2023-07-29T06:46:45;7.93;;;4.13;;
46651;SDS011;32377;52.182;5.398;2023-07-29T06:49:11;6.15;;;3.85;;
46651;SDS011;32377;52.182;5.398;2023-07-29T06:51:37;9.98;;;3.67;;
46651;SDS011;32377;52.182;5.398;2023-07-29T06:54:03;6.88;;;4.35;;
46651;SDS011;32377;52.182;5.398;2023-07-29T06:56:28;7.07;;;4.22;;
46651;SDS011;32377;52.182;5.398;2023-07-29T06:58:54;7.57;;;4.50;;
46651;SDS011;32377;52.182;5.398;2023-07-29T07:01:20;8.02;;;4.60;;
46651;SDS011;32377;52.182;5.398;2023-07-29T07:03:45;8.63;;;4.65;;
46651;SDS011;32377;52.182;5.398;2023-07-29T07:06:11;8.18;;;4.78;;
46651;SDS011;32377;52.182;5.398;2023-07-29T07:08:36;8.88;;;4.95;;
46651;SDS011;32377;52.182;5.398;2023-07-29T07:11:02;11.48;;;5.93;;
46651;SDS011;32377;52.182;5.398;2023-07-29T07:13:28;8.52;;;5.60;;
46651;SDS011;32377;52.182;5.398;2023-07-29T07:15:54;11.52;;;5.72;;
46651;SDS011;32377;52.182;5.398;2023-07-29T07:18:20;8.13;;;6.18;;
46651;SDS011;32377;52.182;5.398;2023-07-29T07:20:49;9.65;;;6.30;;
46651;SDS011;32377;52.182;5.398;2023-07-29T07:23:15;9.63;;;5.80;;
46651;SDS011;32377;52.182;5.398;2023-07-29T07:25:42;12.63;;;5.63;;
46651;SDS011;32377;52.182;5.398;2023-07-29T07:28:07;6.40;;;4.45;;
46651;SDS011;32377;52.182;5.398;2023-07-29T07:30:34;8.30;;;4.43;;
46651;SDS011;32377;52.182;5.398;2023-07-29T07:33:00;8.93;;;4.78;;
46651;SDS011;32377;52.182;5.398;2023-07-29T07:35:26;11.30;;;5.03;;
46651;SDS011;32377;52.182;5.398;2023-07-29T07:37:51;7.00;;;4.97;;
46651;SDS011;32377;52.182;5.398;2023-07-29T07:40:17;8.35;;;4.78;;
46651;SDS011;32377;52.182;5.398;2023-07-29T07:42:43;9.38;;;5.30;;
46651;SDS011;32377;52.182;5.398;2023-07-29T07:45:08;8.02;;;5.45;;
46651;SDS011;32377;52.182;5.398;2023-07-29T07:47:34;8.30;;;5.38;;
46651;SDS011;32377;52.182;5.398;2023-07-29T07:50:00;9.05;;;5.30;;
46651;SDS011;32377;52.182;5.398;2023-07-29T07:52:25;7.68;;;5.53;;
46651;SDS011;32377;52.182;5.398;2023-07-29T07:54:51;11.30;;;5.38;;
46651;SDS011;32377;52.182;5.398;2023-07-29T07:57:18;6.35;;;5.05;;
46651;SDS011;32377;52.182;5.398;2023-07-29T07:59:45;7.22;;;5.20;;
46651;SDS011;32377;52.182;5.398;2023-07-29T08:02:10;10.80;;;5.50;;
46651;SDS011;32377;52.182;5.398;2023-07-29T08:04:36;7.97;;;5.25;;
46651;SDS011;32377;52.182;5.398;2023-07-29T08:07:01;8.15;;;4.85;;
46651;SDS011;32377;52.182;5.398;2023-07-29T08:09:27;7.35;;;5.50;;
46651;SDS011;32377;52.182;5.398;2023-07-29T08:11:53;9.05;;;5.18;;
46651;SDS011;32377;52.182;5.398;2023-07-29T08:14:18;6.18;;;5.28;;
46651;SDS011;32377;52.182;5.398;2023-07-29T08:16:44;9.60;;;4.97;;
46651;SDS011;32377;52.182;5.398;2023-07-29T08:19:09;6.53;;;4.75;;
46651;SDS011;32377;52.182;5.398;2023-07-29T08:21:35;8.27;;;5.03;;
46651;SDS011;32377;52.182;5.398;2023-07-29T08:24:01;6.38;;;5.05;;
46651;SDS011;32377;52.182;5.398;2023-07-29T08:26:27;7.72;;;4.93;;
46651;SDS011;32377;52.182;5.398;2023-07-29T08:28:52;8.63;;;5.40;;
46651;SDS011;32377;52.182;5.398;2023-07-29T08:31:18;6.18;;;5.28;;
46651;SDS011;32377;52.182;5.398;2023-07-29T08:33:43;8.07;;;4.22;;
46651;SDS011;32377;52.182;5.398;2023-07-29T08:36:09;5.50;;;4.10;;
46651;SDS011;32377;52.182;5.398;2023-07-29T08:38:35;4.65;;;3.80;;
46651;SDS011;32377;52.182;5.398;2023-07-29T08:43:44;5.05;;;2.92;;
46651;SDS011;32377;52.182;5.398;2023-07-29T08:46:38;5.90;;;3.20;;
46651;SDS011;32377;52.182;5.398;2023-07-29T08:49:04;3.40;;;3.10;;
46651;SDS011;32377;52.182;5.398;2023-07-29T08:51:31;5.75;;;2.95;;
46651;SDS011;32377;52.182;5.398;2023-07-29T08:53:58;4.45;;;3.13;;
46651;SDS011;32377;52.182;5.398;2023-07-29T08:56:25;5.63;;;3.60;;
46651;SDS011;32377;52.182;5.398;2023-07-29T08:58:50;4.45;;;4.03;;
46651;SDS011;32377;52.182;5.398;2023-07-29T09:01:17;6.82;;;3.72;;
46651;SDS011;32377;52.182;5.398;2023-07-29T09:03:43;6.68;;;3.90;;
46651;SDS011;32377;52.182;5.398;2023-07-29T09:06:08;9.63;;;4.03;;
46651;SDS011;32377;52.182;5.398;2023-07-29T09:08:34;6.47;;;3.20;;
46651;SDS011;32377;52.182;5.398;2023-07-29T09:11:00;6.72;;;3.72;;
46651;SDS011;32377;52.182;5.398;2023-07-29T09:13:26;6.45;;;3.58;;
46651;SDS011;32377;52.182;5.398;2023-07-29T09:15:55;4.38;;;3.20;;
46651;SDS011;32377;52.182;5.398;2023-07-29T09:18:22;7.70;;;3.75;;
46651;SDS011;32377;52.182;5.398;2023-07-29T09:20:50;6.82;;;3.60;;
46651;SDS011;32377;52.182;5.398;2023-07-29T09:23:16;6.70;;;3.50;;
46651;SDS011;32377;52.182;5.398;2023-07-29T09:25:42;5.97;;;3.47;;
46651;SDS011;32377;52.182;5.398;2023-07-29T09:28:11;5.75;;;3.72;;
46651;SDS011;32377;52.182;5.398;2023-07-29T09:30:38;7.57;;;3.50;;
46651;SDS011;32377;52.182;5.398;2023-07-29T09:33:04;5.05;;;3.05;;
46651;SDS011;32377;52.182;5.398;2023-07-29T09:35:32;5.47;;;3.28;;
46651;SDS011;32377;52.182;5.398;2023-07-29T09:37:59;6.07;;;2.97;;
46651;SDS011;32377;52.182;5.398;2023-07-29T09:40:25;4.47;;;2.90;;
46651;SDS011;32377;52.182;5.398;2023-07-29T09:42:51;3.33;;;3.03;;
46651;SDS011;32377;52.182;5.398;2023-07-29T09:45:21;5.57;;;2.65;;
46651;SDS011;32377;52.182;5.398;2023-07-29T09:47:48;4.72;;;3.05;;
46651;SDS011;32377;52.182;5.398;2023-07-29T09:50:15;7.68;;;2.90;;
46651;SDS011;32377;52.182;5.398;2023-07-29T09:52:41;5.57;;;3.08;;
46651;SDS011;32377;52.182;5.398;2023-07-29T09:55:07;6.88;;;3.67;;
46651;SDS011;32377;52.182;5.398;2023-07-29T09:58:57;4.43;;;3.10;;
46651;SDS011;32377;52.182;5.398;2023-07-29T10:01:23;8.32;;;2.90;;
46651;SDS011;32377;52.182;5.398;2023-07-29T10:03:49;4.85;;;3.00;;
46651;SDS011;32377;52.182;5.398;2023-07-29T10:06:16;4.85;;;3.35;;
46651;SDS011;32377;52.182;5.398;2023-07-29T10:08:43;9.07;;;4.07;;
46651;SDS011;32377;52.182;5.398;2023-07-29T10:11:10;8.52;;;3.70;;
46651;SDS011;32377;52.182;5.398;2023-07-29T10:13:36;4.15;;;3.05;;
46651;SDS011;32377;52.182;5.398;2023-07-29T10:16:03;5.55;;;3.20;;
46651;SDS011;32377;52.182;5.398;2023-07-29T10:18:30;5.53;;;2.90;;
46651;SDS011;32377;52.182;5.398;2023-07-29T10:20:58;4.63;;;2.47;;
46651;SDS011;32377;52.182;5.398;2023-07-29T10:23:25;5.40;;;2.75;;
46651;SDS011;32377;52.182;5.398;2023-07-29T10:26:13;6.70;;;2.72;;
46651;SDS011;32377;52.182;5.398;2023-07-29T10:28:41;5.88;;;2.67;;
46651;SDS011;32377;52.182;5.398;2023-07-29T10:31:12;8.60;;;2.30;;
46651;SDS011;32377;52.182;5.398;2023-07-29T10:33:40;5.00;;;2.60;;
46651;SDS011;32377;52.182;5.398;2023-07-29T10:36:07;7.10;;;2.42;;
46651;SDS011;32377;52.182;5.398;2023-07-29T10:38:33;6.75;;;3.10;;
46651;SDS011;32377;52.182;5.398;2023-07-29T10:40:59;9.82;;;3.50;;
46651;SDS011;32377;52.182;5.398;2023-07-29T10:43:26;6.38;;;4.20;;
46651;SDS011;32377;52.182;5.398;2023-07-29T10:46:16;4.47;;;3.90;;
46651;SDS011;32377;52.182;5.398;2023-07-29T10:48:55;9.32;;;4.47;;
46651;SDS011;32377;52.182;5.398;2023-07-29T10:53:47;8.43;;;4.80;;
46651;SDS011;32377;52.182;5.398;2023-07-29T10:56:13;7.50;;;4.57;;
46651;SDS011;32377;52.182;5.398;2023-07-29T10:58:51;6.47;;;4.80;;
46651;SDS011;32377;52.182;5.398;2023-07-29T11:01:32;8.77;;;5.00;;
46651;SDS011;32377;52.182;5.398;2023-07-29T11:17:43;7.30;;;5.38;;
46651;SDS011;32377;52.182;5.398;2023-07-29T11:20:11;6.95;;;5.88;;
46651;SDS011;32377;52.182;5.398;2023-07-29T11:22:38;6.75;;;5.43;;
46651;SDS011;32377;52.182;5.398;2023-07-29T11:25:04;7.82;;;5.50;;
46651;SDS011;32377;52.182;5.398;2023-07-29T11:27:32;6.80;;;4.45;;
46651;SDS011;32377;52.182;5.398;2023-07-29T11:29:58;6.85;;;4.10;;
46651;SDS011;32377;52.182;5.398;2023-07-29T11:32:25;4.78;;;3.13;;
46651;SDS011;32377;52.182;5.398;2023-07-29T11:34:51;5.22;;;2.70;;
46651;SDS011;32377;52.182;5.398;2023-07-29T11:37:17;3.70;;;2.40;;
46651;SDS011;32377;52.182;5.398;2023-07-29T11:39:43;3.72;;;2.47;;
46651;SDS011;32377;52.182;5.398;2023-07-29T11:42:13;4.60;;;2.20;;
46651;SDS011;32377;52.182;5.398;2023-07-29T11:44:40;4.45;;;2.03;;
46651;SDS011;32377;52.182;5.398;2023-07-29T11:47:06;2.25;;;1.58;;
46651;SDS011;32377;52.182;5.398;2023-07-29T11:49:38;4.25;;;1.85;;
46651;SDS011;32377;52.182;5.398;2023-07-29T11:52:08;1.83;;;1.30;;
46651;SDS011;32377;52.182;5.398;2023-07-29T11:54:35;5.45;;;1.75;;
46651;SDS011;32377;52.182;5.398;2023-07-29T11:57:08;1.85;;;1.33;;
46651;SDS011;32377;52.182;5.398;2023-07-29T11:59:34;2.70;;;1.30;;
46651;SDS011;32377;52.182;5.398;2023-07-29T12:02:01;2.15;;;1.27;;
46651;SDS011;32377;52.182;5.398;2023-07-29T12:04:30;1.92;;;1.30;;
46651;SDS011;32377;52.182;5.398;2023-07-29T12:06:57;9.48;;;1.83;;
46651;SDS011;32377;52.182;5.398;2023-07-29T12:09:23;2.95;;;1.63;;
46651;SDS011;32377;52.182;5.398;2023-07-29T12:11:49;1.58;;;1.35;;
46651;SDS011;32377;52.182;5.398;2023-07-29T12:14:17;1.83;;;1.50;;
46651;SDS011;32377;52.182;5.398;2023-07-29T12:16:43;2.45;;;1.63;;
46651;SDS011;32377;52.182;5.398;2023-07-29T12:19:12;1.70;;;1.35;;
46651;SDS011;32377;52.182;5.398;2023-07-29T12:21:38;3.92;;;1.52;;
46651;SDS011;32377;52.182;5.398;2023-07-29T12:24:06;1.55;;;1.23;;
46651;SDS011;32377;52.182;5.398;2023-07-29T12:26:32;1.70;;;1.30;;
46651;SDS011;32377;52.182;5.398;2023-07-29T12:28:58;2.20;;;1.33;;
46651;SDS011;32377;52.182;5.398;2023-07-29T12:31:30;1.85;;;1.27;;
46651;SDS011;32377;52.182;5.398;2023-07-29T12:33:57;1.20;;;1.10;;
46651;SDS011;32377;52.182;5.398;2023-07-29T12:36:27;1.52;;;1.15;;
46651;SDS011;32377;52.182;5.398;2023-07-29T12:39:06;1.77;;;1.30;;
46651;SDS011;32377;52.182;5.398;2023-07-29T12:44:17;1.42;;;1.20;;
46651;SDS011;32377;52.182;5.398;2023-07-29T12:46:43;3.05;;;1.50;;
46651;SDS011;32377;52.182;5.398;2023-07-29T12:49:09;2.03;;;1.25;;
46651;SDS011;32377;52.182;5.398;2023-07-29T12:51:35;4.10;;;1.40;;
46651;SDS011;32377;52.182;5.398;2023-07-29T12:54:02;1.48;;;1.35;;
46651;SDS011;32377;52.182;5.398;2023-07-29T12:56:29;1.95;;;1.65;;
46651;SDS011;32377;52.182;5.398;2023-07-29T12:58:56;2.33;;;1.65;;
46651;SDS011;32377;52.182;5.398;2023-07-29T13:01:23;3.70;;;1.90;;
46651;SDS011;32377;52.182;5.398;2023-07-29T13:03:49;1.80;;;1.63;;
46651;SDS011;32377;52.182;5.398;2023-07-29T13:06:14;2.35;;;1.73;;
46651;SDS011;32377;52.182;5.398;2023-07-29T13:08:44;2.63;;;1.58;;
46651;SDS011;32377;52.182;5.398;2023-07-29T13:11:10;2.88;;;1.88;;
46651;SDS011;32377;52.182;5.398;2023-07-29T13:13:36;2.63;;;1.63;;
46651;SDS011;32377;52.182;5.398;2023-07-29T13:16:01;2.05;;;1.67;;
46651;SDS011;32377;52.182;5.398;2023-07-29T13:18:27;3.03;;;2.15;;
46651;SDS011;32377;52.182;5.398;2023-07-29T13:20:53;2.75;;;1.50;;
46651;SDS011;32377;52.182;5.398;2023-07-29T13:23:19;4.28;;;1.75;;
46651;SDS011;32377;52.182;5.398;2023-07-29T13:25:45;4.38;;;2.00;;
46651;SDS011;32377;52.182;5.398;2023-07-29T13:28:11;4.07;;;2.08;;
46651;SDS011;32377;52.182;5.398;2023-07-29T13:30:38;1.98;;;1.70;;
46651;SDS011;32377;52.182;5.398;2023-07-29T13:33:04;4.65;;;1.83;;
46651;SDS011;32377;52.182;5.398;2023-07-29T13:35:31;2.55;;;1.60;;
46651;SDS011;32377;52.182;5.398;2023-07-29T13:37:56;4.00;;;1.70;;
46651;SDS011;32377;52.182;5.398;2023-07-29T13:40:22;6.43;;;1.75;;
46651;SDS011;32377;52.182;5.398;2023-07-29T13:42:48;2.70;;;1.80;;
46651;SDS011;32377;52.182;5.398;2023-07-29T13:45:13;2.40;;;1.73;;
46651;SDS011;32377;52.182;5.398;2023-07-29T13:47:39;2.33;;;1.67;;
46651;SDS011;32377;52.182;5.398;2023-07-29T13:50:04;3.25;;;1.90;;
46651;SDS011;32377;52.182;5.398;2023-07-29T13:52:32;4.75;;;2.13;;
46651;SDS011;32377;52.182;5.398;2023-07-29T13:54:58;5.22;;;1.90;;
46651;SDS011;32377;52.182;5.398;2023-07-29T13:57:23;4.72;;;1.77;;
46651;SDS011;32377;52.182;5.398;2023-07-29T13:59:49;3.92;;;2.20;;
46651;SDS011;32377;52.182;5.398;2023-07-29T14:02:15;4.80;;;1.67;;
46651;SDS011;32377;52.182;5.398;2023-07-29T14:04:40;4.10;;;1.75;;
46651;SDS011;32377;52.182;5.398;2023-07-29T14:07:06;3.78;;;2.00;;
46651;SDS011;32377;52.182;5.398;2023-07-29T14:09:31;3.60;;;2.13;;
46651;SDS011;32377;52.182;5.398;2023-07-29T14:11:57;3.72;;;1.98;;
46651;SDS011;32377;52.182;5.398;2023-07-29T14:14:23;2.47;;;1.80;;
46651;SDS011;32377;52.182;5.398;2023-07-29T14:16:48;3.10;;;1.83;;
46651;SDS011;32377;52.182;5.398;2023-07-29T14:19:14;2.17;;;1.90;;
46651;SDS011;32377;52.182;5.398;2023-07-29T14:21:39;6.00;;;1.90;;
46651;SDS011;32377;52.182;5.398;2023-07-29T14:24:05;3.83;;;1.75;;
46651;SDS011;32377;52.182;5.398;2023-07-29T14:26:31;3.20;;;1.70;;
46651;SDS011;32377;52.182;5.398;2023-07-29T14:28:56;2.90;;;1.48;;
46651;SDS011;32377;52.182;5.398;2023-07-29T14:31:22;2.90;;;1.38;;
46651;SDS011;32377;52.182;5.398;2023-07-29T14:33:48;3.58;;;1.42;;
46651;SDS011;32377;52.182;5.398;2023-07-29T14:36:14;1.65;;;1.30;;
46651;SDS011;32377;52.182;5.398;2023-07-29T14:38:40;3.40;;;1.27;;
46651;SDS011;32377;52.182;5.398;2023-07-29T14:41:06;3.15;;;1.52;;
46651;SDS011;32377;52.182;5.398;2023-07-29T14:43:33;2.38;;;1.65;;
46651;SDS011;32377;52.182;5.398;2023-07-29T14:45:59;4.75;;;1.80;;
46651;SDS011;32377;52.182;5.398;2023-07-29T14:48:25;2.05;;;1.30;;
46651;SDS011;32377;52.182;5.398;2023-07-29T14:50:50;1.30;;;1.20;;
46651;SDS011;32377;52.182;5.398;2023-07-29T14:53:16;1.17;;;0.93;;
46651;SDS011;32377;52.182;5.398;2023-07-29T14:55:42;2.55;;;1.30;;
46651;SDS011;32377;52.182;5.398;2023-07-29T14:58:08;1.88;;;0.95;;
46651;SDS011;32377;52.182;5.398;2023-07-29T15:00:33;3.28;;;1.10;;
46651;SDS011;32377;52.182;5.398;2023-07-29T15:02:59;2.10;;;1.27;;
46651;SDS011;32377;52.182;5.398;2023-07-29T15:05:25;1.55;;;0.95;;
46651;SDS011;32377;52.182;5.398;2023-07-29T15:07:51;2.33;;;1.15;;
46651;SDS011;32377;52.182;5.398;2023-07-29T15:10:16;2.88;;;1.30;;